Time;durP1;ratioP1;P1;durP2;ratioP2;P2;SDS_P1;SDS_P2;PMS_P1;PMS_P2;Temp;Humidity;BMP_temperature;BMP_pressure;BME280_temperature;BME280_humidity;BME280_pressure;Samples;Min_cycle;Max_cycle;Signal;HPM_P1;HPM_P2
2021/09/22 00:01:22;;;;;;;12.77;11.23;;;;;;;;;;6196920;28;20033;-82
2021/09/22 00:04:23;;;;;;;14.77;12.60;;;10.50;99.90;;;;;;6229716;28;20024;-82
2021/09/22 00:07:24;;;;;;;14.43;11.65;;;;;;;;;;6212995;28;20029;-82
2021/09/22 00:10:25;;;;;;;13.77;11.98;;;10.20;99.90;;;;;;6213005;28;20049;-82
2021/09/22 00:13:26;;;;;;;16.42;12.50;;;;;;;;;;6213033;28;20036;-82
2021/09/22 00:16:28;;;;;;;16.38;12.88;;;10.40;99.90;;;;;;6229616;28;20180;-82
2021/09/22 00:19:29;;;;;;;15.57;11.05;;;;;;;;;;6213296;28;20148;-82
2021/09/22 00:22:30;;;;;;;12.02;10.70;;;9.80;99.90;;;;;;6229285;28;20017;-82
2021/09/22 00:25:33;;;;;;;13.98;11.70;;;9.90;99.90;;;;;;6196683;28;20037;-82
2021/09/22 00:28:35;;;;;;;14.38;10.95;;;;;;;;;;6213700;28;21052;-82
2021/09/22 00:31:36;;;;;;;14.35;11.35;;;9.90;99.90;;;;;;6229693;28;20060;-82
2021/09/22 00:34:37;;;;;;;15.35;11.75;;;10.00;99.90;;;;;;6196393;28;20029;-82
2021/09/22 00:37:37;;;;;;;14.60;11.85;;;9.70;99.90;;;;;;6229016;28;20045;-82
2021/09/22 00:40:38;;;;;;;13.95;11.27;;;9.80;99.90;;;;;;6195993;28;20030;-81
2021/09/22 00:43:38;;;;;;;14.70;12.07;;;10.10;99.90;;;;;;6228750;28;20037;-80
2021/09/22 00:46:39;;;;;;;16.52;12.55;;;9.80;99.90;;;;;;6211985;28;20022;-81
2021/09/22 00:49:40;;;;;;;14.98;12.82;;;9.70;99.90;;;;;;6212291;28;20048;-81
2021/09/22 00:52:41;;;;;;;13.43;11.88;;;9.90;99.90;;;;;;6196224;28;20033;-81
2021/09/22 00:55:43;;;;;;;14.25;11.77;;;9.70;99.90;;;;;;6212756;28;20033;-82
2021/09/22 00:58:44;;;;;;;12.45;10.50;;;9.70;99.90;;;;;;6196256;28;20083;-82
2021/09/22 01:01:49;;;;;;;12.82;11.32;;;;;;;;;;6212247;28;20033;-82
2021/09/22 01:04:50;;;;;;;13.45;12.02;;;9.40;99.90;;;;;;6229165;28;20033;-82
2021/09/22 01:07:51;;;;;;;14.05;11.30;;;;;;;;;;6195214;28;20055;-81
2021/09/22 01:10:52;;;;;;;13.65;11.32;;;9.40;99.90;;;;;;6228072;28;20021;-82
2021/09/22 01:13:53;;;;;;;14.82;11.43;;;;;;;;;;6211336;28;20033;-82
2021/09/22 01:16:54;;;;;;;13.60;12.15;;;;;;;;;;6211420;28;20040;-82
2021/09/22 01:20:07;;;;;;;14.35;11.85;;;9.80;99.90;;;;;;6214107;28;20092;-82
2021/09/22 01:23:08;;;;;;;15.68;12.38;;;9.50;99.90;;;;;;6188126;28;20472;-82
2021/09/22 01:26:09;;;;;;;15.27;11.60;;;;;;;;;;6203546;28;20088;-82
2021/09/22 01:29:10;;;;;;;15.07;12.07;;;;;;;;;;6203669;28;20102;-82
2021/09/22 01:32:11;;;;;;;16.70;12.45;;;;;;;;;;6187069;28;20060;-82
2021/09/22 01:35:12;;;;;;;13.55;11.90;;;;;;;;;;6203010;28;20029;-83
2021/09/22 01:38:19;;;;;;;13.52;11.65;;;10.30;99.90;;;;;;6186756;28;20026;-82
2021/09/22 01:41:19;;;;;;;14.95;11.63;;;9.30;99.90;;;;;;6170247;28;20471;-81
2021/09/22 01:44:20;;;;;;;13.57;10.30;;;9.30;99.90;;;;;;6170374;28;20076;-83
2021/09/22 01:47:21;;;;;;;13.45;11.18;;;;;;;;;;6170348;28;20080;-82
2021/09/22 01:50:22;;;;;;;13.02;11.13;;;;;;;;;;6186771;28;20017;-82
2021/09/22 01:53:23;;;;;;;14.10;11.82;;;9.10;99.90;;;;;;6202891;28;20026;-83
2021/09/22 01:56:24;;;;;;;13.35;11.40;;;;;;;;;;6186252;28;20148;-82
2021/09/22 01:59:24;;;;;;;15.80;11.32;;;9.00;99.90;;;;;;6202745;28;20022;-83
2021/09/22 02:02:25;;;;;;;17.35;13.13;;;;;;;;;;6169928;28;20036;-82
2021/09/22 02:05:26;;;;;;;14.80;13.13;;;9.40;99.90;;;;;;6202815;28;20017;-82
2021/09/22 02:08:27;;;;;;;16.25;12.13;;;;;;;;;;6170060;28;20030;-82
2021/09/22 02:11:28;;;;;;;16.05;12.30;;;;;;;;;;6186128;28;20022;-82
2021/09/22 02:14:29;;;;;;;14.48;11.77;;;9.30;99.90;;;;;;6202522;28;20026;-82
2021/09/22 02:17:29;;;;;;;13.13;11.63;;;9.30;99.90;;;;;;6202567;28;20141;-82
2021/09/22 02:20:30;;;;;;;17.23;11.52;;;9.10;99.90;;;;;;6188163;28;20042;-82
2021/09/22 02:23:31;;;;;;;13.75;11.05;;;;;;;;;;6193839;28;20037;-81
2021/09/22 02:26:32;;;;;;;14.73;11.77;;;9.00;99.90;;;;;;6226545;28;20406;-81
2021/09/22 02:29:32;;;;;;;15.15;11.38;;;9.10;99.90;;;;;;6209950;28;20087;-81
2021/09/22 02:32:33;;;;;;;12.77;10.45;;;;;;;;;;6193305;28;20371;-82
2021/09/22 02:35:34;;;;;;;14.27;10.75;;;9.20;99.90;;;;;;6226412;28;20029;-82
2021/09/22 02:38:35;;;;;;;12.00;9.85;;;;;;;;;;6209805;28;20036;-82
2021/09/22 02:41:36;;;;;;;13.43;11.00;;;8.80;99.90;;;;;;6209971;28;20033;-82
2021/09/22 02:44:37;;;;;;;13.05;11.00;;;8.70;99.90;;;;;;6209848;28;20026;-82
2021/09/22 02:47:38;;;;;;;15.93;11.93;;;;;;;;;;6208972;28;20036;-82
2021/09/22 02:50:39;;;;;;;13.50;11.77;;;;;;;;;;6226599;28;20029;-82
2021/09/22 02:53:39;;;;;;;14.85;11.57;;;8.60;99.90;;;;;;6226041;28;20080;-82
2021/09/22 02:56:40;;;;;;;17.15;12.32;;;;;;;;;;6193284;28;20041;-82
2021/09/22 02:59:41;;;;;;;14.85;12.23;;;;;;;;;;6209484;28;20434;-82
2021/09/22 03:02:42;;;;;;;16.33;12.60;;;;;;;;;;6225434;28;20014;-82
2021/09/22 03:05:44;;;;;;;15.48;13.23;;;8.80;99.90;;;;;;6209376;28;20032;-81
2021/09/22 03:08:44;;;;;;;13.77;12.30;;;8.80;99.90;;;;;;6209537;28;20029;-81
2021/09/22 03:11:45;;;;;;;16.63;12.70;;;;;;;;;;6209054;28;20052;-82
2021/09/22 03:14:46;;;;;;;15.68;12.07;;;8.70;99.90;;;;;;6225787;28;20021;-81
2021/09/22 03:17:47;;;;;;;14.90;10.85;;;;;;;;;;6192062;28;20566;-82
2021/09/22 03:20:48;;;;;;;15.45;12.18;;;9.00;99.90;;;;;;6221536;28;20073;-82
2021/09/22 03:23:48;;;;;;;14.57;11.68;;;8.70;99.90;;;;;;6168625;28;20434;-82
2021/09/22 03:26:49;;;;;;;14.20;11.95;;;;;;;;;;6182440;28;20054;-81
2021/09/22 03:29:50;;;;;;;13.77;12.27;;;8.80;99.90;;;;;;6183656;28;20029;-81
2021/09/22 03:32:51;;;;;;;12.95;11.25;;;8.40;99.90;;;;;;6168832;28;20030;-81
2021/09/22 03:35:51;;;;;;;14.20;10.98;;;8.50;99.90;;;;;;6184766;28;20380;-81
2021/09/22 03:38:52;;;;;;;13.25;11.82;;;;;;;;;;6168760;28;20030;-81
2021/09/22 03:41:53;;;;;;;15.60;12.52;;;8.60;99.90;;;;;;6200892;28;20033;-81
2021/09/22 03:44:53;;;;;;;15.73;12.25;;;8.40;99.90;;;;;;6185201;28;20428;-81
2021/09/22 03:47:54;;;;;;;18.10;12.68;;;;;;;;;;6184466;28;20377;-81
2021/09/22 03:50:55;;;;;;;19.75;12.02;;;;;;;;;;6200821;28;20037;-81
2021/09/22 03:53:56;;;;;;;15.38;12.50;;;;;;;;;;6184376;28;20029;-81
2021/09/22 03:56:57;;;;;;;14.43;12.18;;;;;;;;;;6184958;28;20120;-81
2021/09/22 03:59:58;;;;;;;16.45;11.32;;;8.30;99.90;;;;;;6201222;28;20034;-83
2021/09/22 04:02:59;;;;;;;16.50;11.80;;;8.40;99.90;;;;;;6168485;28;20053;-82
2021/09/22 04:05:59;;;;;;;17.38;12.25;;;8.60;99.90;;;;;;6201094;28;20465;-82
2021/09/22 04:09:00;;;;;;;15.32;12.68;;;;;;;;;;6184770;28;20349;-81
2021/09/22 04:12:01;;;;;;;13.00;11.60;;;8.00;99.90;;;;;;6200637;28;20033;-82
2021/09/22 04:15:02;;;;;;;14.63;12.13;;;;;;;;;;6183848;28;20026;-82
2021/09/22 04:18:03;;;;;;;13.43;11.27;;;;;;;;;;6200686;28;20034;-82
2021/09/22 04:21:03;;;;;;;17.58;13.10;;;8.30;99.90;;;;;;6207176;28;20148;-83
2021/09/22 04:24:04;;;;;;;18.15;13.18;;;8.50;99.90;;;;;;6208146;28;20414;-83
2021/09/22 04:27:05;;;;;;;15.82;12.93;;;;;;;;;;6208403;28;20053;-82
2021/09/22 04:30:07;;;;;;;17.50;12.88;;;8.30;99.90;;;;;;6213063;28;20021;-82
2021/09/22 04:33:08;;;;;;;17.80;14.17;;;;;;;;;;6212956;28;20384;-81
2021/09/22 04:36:09;;;;;;;19.00;13.43;;;8.10;99.90;;;;;;6211943;28;20033;-82
2021/09/22 04:39:10;;;;;;;14.98;12.70;;;;;;;;;;6210620;28;20380;-81
2021/09/22 04:42:10;;;;;;;18.05;14.32;;;8.30;99.90;;;;;;6210230;28;20028;-79
2021/09/22 04:45:11;;;;;;;17.63;13.50;;;;;;;;;;6194895;28;20037;-79
2021/09/22 04:48:12;;;;;;;17.73;14.05;;;8.00;99.90;;;;;;6226647;28;20021;-79
2021/09/22 04:51:13;;;;;;;16.13;13.55;;;;;;;;;;6227896;28;20349;-79
2021/09/22 04:54:14;;;;;;;18.60;13.75;;;8.20;99.90;;;;;;6227884;28;20063;-79
2021/09/22 04:57:15;;;;;;;18.67;12.45;;;;;;;;;;6228379;28;20045;-79
2021/09/22 05:00:16;;;;;;;16.67;12.77;;;;;;;;;;6227994;28;20036;-79
2021/09/22 05:03:17;;;;;;;14.30;11.70;;;;;;;;;;6210483;28;20698;-80
2021/09/22 05:06:18;;;;;;;14.20;11.98;;;8.50;99.90;;;;;;6226901;28;20159;-81
2021/09/22 05:09:18;;;;;;;14.73;12.20;;;8.40;99.90;;;;;;6226826;28;20044;-79
2021/09/22 05:12:20;;;;;;;17.73;12.48;;;8.40;99.90;;;;;;6228866;28;20030;-78
2021/09/22 05:15:20;;;;;;;16.60;12.77;;;8.20;99.90;;;;;;6211550;28;20029;-78
2021/09/22 05:18:21;;;;;;;14.77;12.05;;;;;;;;;;6227212;28;20041;-77
2021/09/22 05:21:22;;;;;;;20.38;12.63;;;8.50;99.90;;;;;;6227823;28;20032;-78
2021/09/22 05:24:23;;;;;;;18.88;13.10;;;;;;;;;;6245461;28;20033;-81
2021/09/22 05:27:23;;;;;;;14.25;11.70;;;8.40;99.90;;;;;;6228207;28;20026;-79
2021/09/22 05:30:24;;;;;;;16.33;12.65;;;8.20;99.90;;;;;;6244597;28;20056;-78
2021/09/22 05:33:25;;;;;;;14.80;11.40;;;;;;;;;;6226922;28;20094;-78
2021/09/22 05:36:26;;;;;;;16.70;13.63;;;8.60;99.90;;;;;;6226411;28;20499;-79
2021/09/22 05:39:27;;;;;;;16.48;12.65;;;;;;;;;;6210456;28;20101;-78
2021/09/22 05:42:27;;;;;;;16.63;12.52;;;8.60;99.90;;;;;;6245527;28;20546;-78
2021/09/22 05:45:28;;;;;;;16.80;12.52;;;8.30;99.90;;;;;;6222980;28;20038;-79
2021/09/22 05:48:29;;;;;;;19.50;13.52;;;;;;;;;;6239004;28;20069;-79
2021/09/22 05:51:30;;;;;;;16.20;12.50;;;8.50;99.90;;;;;;6239559;28;20037;-79
2021/09/22 05:54:31;;;;;;;17.25;13.80;;;;;;;;;;6233964;28;20108;-79
2021/09/22 05:57:31;;;;;;;17.67;13.05;;;8.90;99.90;;;;;;6244581;28;20041;-77
2021/09/22 06:00:32;;;;;;;17.27;12.95;;;9.60;99.90;;;;;;6227135;28;20033;-80
2021/09/22 06:03:34;;;;;;;14.10;11.88;;;9.90;99.90;;;;;;6211086;28;20025;-79
2021/09/22 06:06:35;;;;;;;13.93;11.18;;;9.90;99.90;;;;;;6227012;28;20017;-79
2021/09/22 06:09:35;;;;;;;14.30;12.10;;;10.70;99.90;;;;;;6227010;28;20040;-79
2021/09/22 06:12:36;;;;;;;15.30;12.30;;;10.60;99.90;;;;;;6226632;28;20022;-79
2021/09/22 06:15:37;;;;;;;13.82;11.52;;;11.20;99.90;;;;;;6210599;28;20108;-77
2021/09/22 06:18:37;;;;;;;13.40;11.15;;;11.50;99.90;;;;;;6210302;28;20053;-79
2021/09/22 06:21:38;;;;;;;14.00;11.63;;;11.60;99.90;;;;;;6226541;28;20371;-79
2021/09/22 06:24:39;;;;;;;12.77;11.23;;;12.50;99.90;;;;;;6210271;28;20033;-78
2021/09/22 06:27:40;;;;;;;16.48;11.57;;;12.80;99.90;;;;;;6226456;28;20459;-78
2021/09/22 06:30:41;;;;;;;11.70;10.50;;;13.30;99.90;;;;;;6226827;28;20029;-79
2021/09/22 06:33:41;;;;;;;13.00;10.65;;;13.80;99.90;;;;;;6226028;28;20152;-78
2021/09/22 06:36:42;;;;;;;12.32;10.25;;;;;;;;;;6225754;28;20126;-78
2021/09/22 06:39:43;;;;;;;11.63;10.43;;;;;;;;;;6226308;28;20034;-78
2021/09/22 06:42:45;;;;;;;13.23;11.30;;;;;;;;;;6209879;28;20018;-79
2021/09/22 06:45:45;;;;;;;15.27;11.95;;;15.30;99.90;;;;;;6226381;28;20033;-79
2021/09/22 06:48:46;;;;;;;14.35;11.63;;;15.80;99.90;;;;;;6209463;28;20041;-79
2021/09/22 06:51:46;;;;;;;14.98;11.52;;;16.30;99.90;;;;;;6225715;28;20036;-79
2021/09/22 06:54:47;;;;;;;15.18;12.15;;;;;;;;;;6209389;28;20447;-79
2021/09/22 06:57:48;;;;;;;16.00;11.60;;;17.60;99.90;;;;;;6243318;28;20029;-79
2021/09/22 07:00:49;;;;;;;14.93;10.75;;;17.40;99.90;;;;;;6225767;28;20041;-79
2021/09/22 07:03:49;;;;;;;13.18;11.23;;;17.70;99.90;;;;;;6192829;28;20021;-80
2021/09/22 07:06:50;;;;;;;13.18;11.77;;;17.80;99.90;;;;;;6243406;28;20459;-79
2021/09/22 07:09:51;;;;;;;14.52;11.57;;;18.10;99.90;;;;;;6225401;28;20108;-79
2021/09/22 07:12:52;;;;;;;14.05;12.57;;;18.30;99.30;;;;;;6225513;28;20124;-79
2021/09/22 07:15:53;;;;;;;11.63;10.07;;;18.80;99.90;;;;;;6225409;28;20100;-80
2021/09/22 07:18:53;;;;;;;11.82;10.63;;;18.70;99.90;;;;;;6225256;28;20052;-80
2021/09/22 07:21:54;;;;;;;12.13;10.75;;;;;;;;;;6243109;28;20371;-80
2021/09/22 07:24:55;;;;;;;12.70;10.45;;;18.50;99.90;;;;;;6242991;28;20018;-79
2021/09/22 07:27:56;;;;;;;13.90;11.02;;;18.60;99.90;;;;;;6225115;28;20029;-80
2021/09/22 07:30:57;;;;;;;14.55;12.35;;;;;;;;;;6225142;28;20080;-79
2021/09/22 07:33:57;;;;;;;13.93;11.40;;;18.90;99.90;;;;;;6225517;28;20030;-80
2021/09/22 07:36:59;;;;;;;13.10;11.77;;;;;;;;;;6224984;28;20605;-80
2021/09/22 07:40:00;;;;;;;12.97;11.63;;;;;;;;;;6225317;28;20091;-80
2021/09/22 07:43:00;;;;;;;12.95;11.63;;;19.30;99.90;;;;;;6225086;28;20471;-80
2021/09/22 07:46:01;;;;;;;14.60;11.27;;;;;;;;;;6242703;28;20116;-80
2021/09/22 07:49:02;;;;;;;13.15;10.27;;;19.70;98.40;;;;;;6242445;28;20030;-79
2021/09/22 07:52:03;;;;;;;12.23;10.88;;;19.50;99.90;;;;;;6208428;28;20065;-80
2021/09/22 07:55:05;;;;;;;12.25;10.88;;;19.60;99.90;;;;;;6225022;28;20056;-79
2021/09/22 07:58:06;;;;;;;11.30;10.13;;;19.50;99.90;;;;;;6216988;28;20515;-79
2021/09/22 08:01:06;;;;;;;15.02;11.73;;;19.70;99.90;;;;;;6242752;28;20034;-80
2021/09/22 08:04:07;;;;;;;12.82;11.07;;;20.00;99.90;;;;;;6228500;28;20407;-79
2021/09/22 08:07:08;;;;;;;11.90;10.60;;;;;;;;;;6230271;28;20211;-79
2021/09/22 08:10:09;;;;;;;11.85;10.65;;;20.00;98.00;;;;;;6230028;28;20033;-79
2021/09/22 08:13:10;;;;;;;11.90;10.43;;;;;;;;;;6196842;28;20088;-80
2021/09/22 08:16:10;;;;;;;11.50;10.30;;;20.30;99.90;;;;;;6229091;28;20440;-80
2021/09/22 08:19:14;;;;;;;12.05;10.85;;;20.60;98.00;;;;;;6221158;28;20049;-80
2021/09/22 08:22:15;;;;;;;12.55;11.02;;;20.80;99.90;;;;;;6204668;28;20034;-80
2021/09/22 08:25:16;;;;;;;12.77;11.07;;;20.60;96.80;;;;;;6222506;28;20056;-79
2021/09/22 08:28:17;;;;;;;13.50;11.65;;;20.90;96.40;;;;;;6205012;28;20030;-79
2021/09/22 08:31:17;;;;;;;12.52;10.77;;;20.90;96.30;;;;;;6188735;28;20539;-80
2021/09/22 08:34:20;;;;;;;12.57;11.27;;;21.10;99.90;;;;;;6188488;28;20038;-79
2021/09/22 08:37:20;;;;;;;15.05;11.48;;;21.00;95.80;;;;;;6222096;28;20041;-80
2021/09/22 08:40:21;;;;;;;12.38;10.32;;;21.30;95.40;;;;;;6204674;28;20426;-80
2021/09/22 08:43:25;;;;;;;14.02;12.05;;;21.30;94.90;;;;;;6188756;28;20065;-80
2021/09/22 08:46:25;;;;;;;13.65;12.27;;;21.40;95.20;;;;;;6188598;28;20034;-81
2021/09/22 08:49:26;;;;;;;12.05;10.85;;;21.60;95.00;;;;;;6187487;28;20124;-80
2021/09/22 08:52:26;;;;;;;13.48;11.68;;;21.80;93.90;;;;;;6197413;28;20025;-79
2021/09/22 08:55:27;;;;;;;12.27;11.07;;;21.70;93.90;;;;;;6187902;28;20150;-80
2021/09/22 08:58:28;;;;;;;12.70;11.13;;;21.90;93.80;;;;;;6204056;28;20544;-80
2021/09/22 09:01:29;;;;;;;13.98;12.57;;;21.80;93.20;;;;;;6187995;28;20026;-80
2021/09/22 09:04:30;;;;;;;13.98;12.45;;;;;;;;;;6221772;28;20037;-80
2021/09/22 09:07:32;;;;;;;15.45;12.68;;;22.40;99.90;;;;;;6187973;28;20036;-80
2021/09/22 09:10:34;;;;;;;14.88;13.32;;;22.60;99.90;;;;;;6188256;28;20030;-80
2021/09/22 09:13:51;;;;;;;12.93;11.52;;;22.50;95.60;;;;;;6203456;28;20034;-80
2021/09/22 09:16:52;;;;;;;13.77;12.40;;;22.80;98.30;;;;;;6203339;28;20038;-80
2021/09/22 09:19:55;;;;;;;14.70;11.98;;;22.90;95.80;;;;;;6217229;28;20480;-80
2021/09/22 09:23:01;;;;;;;15.55;12.95;;;22.80;95.70;;;;;;6228072;28;20040;-80
2021/09/22 09:26:04;;;;;;;16.27;13.48;;;;;;;;;;6245890;28;20029;-80
2021/09/22 09:29:04;;;;;;;;;;;22.80;94.20;;;;;;6229299;28;20025;-79
2021/09/22 09:32:17;;;;;;;15.73;12.75;;;23.20;99.90;;;;;;6210706;28;19909;-80
2021/09/22 09:35:22;;;;;;;13.00;11.60;;;23.20;99.90;;;;;;6195431;28;20464;-80
2021/09/22 09:38:22;;;;;;;15.90;13.25;;;23.40;99.90;;;;;;6211517;28;20120;-80
2021/09/22 09:41:48;;;;;;;13.10;11.73;;;23.30;95.30;;;;;;6211379;28;20353;-80
2021/09/22 09:44:49;;;;;;;14.43;11.95;;;;;;;;;;6215307;28;20036;-80
2021/09/22 09:48:11;;;;;;;14.02;12.38;;;23.10;99.00;;;;;;6244871;28;20053;-80
2021/09/22 09:51:12;;;;;;;16.85;12.57;;;;;;;;;;6226898;28;20125;-80
2021/09/22 09:54:18;;;;;;;13.90;12.48;;;23.00;93.90;;;;;;6244836;28;20030;-80
2021/09/22 09:57:19;;;;;;;16.17;11.85;;;22.50;96.90;;;;;;6227121;28;20045;-80
2021/09/22 10:00:44;;;;;;;14.70;12.07;;;22.60;95.50;;;;;;6210818;28;20017;-80
2021/09/22 10:03:46;;;;;;;14.30;12.30;;;22.80;99.90;;;;;;6215024;28;20029;-80
2021/09/22 10:06:47;;;;;;;16.08;11.98;;;;;;;;;;6194539;28;20414;-80
2021/09/22 10:09:50;;;;;;;13.10;11.75;;;22.80;97.30;;;;;;6227371;28;20025;-80
2021/09/22 10:12:51;;;;;;;13.73;12.32;;;22.70;94.90;;;;;;6227225;28;20032;-80
2021/09/22 10:15:51;;;;;;;15.05;12.48;;;23.10;95.40;;;;;;6193879;28;20041;-80
2021/09/22 10:18:52;;;;;;;13.45;12.15;;;22.80;89.40;;;;;;6244345;28;20107;-80
2021/09/22 10:21:53;;;;;;;12.43;11.13;;;;;;;;;;6210399;28;20359;-80
2021/09/22 10:24:55;;;;;;;14.48;11.60;;;23.00;87.40;;;;;;6226264;28;20013;-80
2021/09/22 10:27:55;;;;;;;12.73;11.43;;;23.00;88.40;;;;;;6194138;28;20061;-80
2021/09/22 10:30:57;;;;;;;13.05;11.75;;;23.10;86.80;;;;;;6226525;28;20356;-80
2021/09/22 10:33:57;;;;;;;17.35;11.35;;;23.20;88.20;;;;;;6210616;28;20484;-80
2021/09/22 10:36:59;;;;;;;12.43;11.20;;;23.60;86.90;;;;;;6196724;28;20061;-80
2021/09/22 10:40:01;;;;;;;;;;;23.80;85.30;;;;;;6210754;28;20060;-80
2021/09/22 10:43:14;;;;;;;14.18;11.50;;;23.50;85.00;;;;;;6209877;28;19905;-80
2021/09/22 10:46:18;;;;;;;12.48;11.20;;;24.10;85.20;;;;;;6243571;28;20516;-80
2021/09/22 10:49:19;;;;;;;12.27;10.18;;;24.00;92.10;;;;;;6209493;28;20039;-80
2021/09/22 10:52:34;;;;;;;11.70;10.55;;;24.10;86.40;;;;;;6193357;28;20463;-80
2021/09/22 10:55:34;;;;;;;11.25;9.93;;;24.10;84.70;;;;;;6226378;28;20790;-80
2021/09/22 10:58:49;;;;;;;12.00;10.15;;;23.90;84.60;;;;;;6209603;28;20034;-80
2021/09/22 11:01:50;;;;;;;11.13;9.50;;;24.10;84.60;;;;;;6210965;28;20029;-80
2021/09/22 11:04:59;;;;;;;11.07;8.98;;;24.00;84.10;;;;;;6225358;28;20036;-80
2021/09/22 11:08:03;;;;;;;10.25;8.65;;;24.00;84.70;;;;;;6185331;28;20029;-80
2021/09/22 11:11:04;;;;;;;11.52;8.85;;;23.90;85.10;;;;;;6225372;28;20025;-81
2021/09/22 11:14:04;;;;;;;9.70;8.70;;;23.80;83.10;;;;;;6226415;28;20068;-80
2021/09/22 11:17:18;;;;;;;10.70;9.57;;;23.80;84.60;;;;;;6228121;28;20448;-80
2021/09/22 11:20:19;;;;;;;9.88;8.18;;;23.80;86.00;;;;;;6208903;28;20057;-81
2021/09/22 11:23:20;;;;;;;10.33;9.20;;;23.90;84.40;;;;;;6218491;28;20026;-80
2021/09/22 11:26:23;;;;;;;9.68;8.75;;;24.10;84.80;;;;;;6184545;28;20030;-80
2021/09/22 11:29:36;;;;;;;8.55;7.75;;;24.20;83.20;;;;;;6168778;28;20072;-81
2021/09/22 11:32:41;;;;;;;11.55;8.05;;;24.30;82.10;;;;;;6201375;28;20030;-81
2021/09/22 11:35:42;;;;;;;9.70;8.25;;;24.00;81.50;;;;;;6185287;28;20050;-81
2021/09/22 11:38:42;;;;;;;9.20;8.17;;;24.10;84.80;;;;;;6187658;28;20482;-81
2021/09/22 11:41:43;;;;;;;7.50;6.80;;;24.00;84.40;;;;;;6189864;28;20030;-81
2021/09/22 11:44:43;;;;;;;8.93;8.02;;;24.00;83.10;;;;;;6189098;28;20026;-81
2021/09/22 11:47:45;;;;;;;8.77;7.87;;;23.80;94.30;;;;;;6205684;28;20150;-81
2021/09/22 11:50:46;;;;;;;;;;;23.80;85.60;;;;;;6173509;28;20033;-82
2021/09/22 11:53:47;;;;;;;8.65;7.32;;;24.10;93.40;;;;;;6205015;28;19909;-81
2021/09/22 11:57:03;;;;;;;7.57;6.63;;;24.00;99.10;;;;;;6166919;28;20050;-81
2021/09/22 12:00:09;;;;;;;10.82;8.07;;;24.20;99.70;;;;;;6205702;28;20034;-80
2021/09/22 12:03:11;;;;;;;9.23;7.43;;;23.80;94.20;;;;;;6205336;28;20041;-82
2021/09/22 12:06:16;;;;;;;8.07;7.20;;;23.80;99.60;;;;;;6187452;28;20427;-82
2021/09/22 12:09:17;;;;;;;7.13;6.43;;;;;;;;;;6205742;28;20084;-82
2021/09/22 12:12:19;;;;;;;8.32;7.03;;;24.30;93.10;;;;;;6204955;28;20030;-82
2021/09/22 12:15:21;;;;;;;7.68;6.97;;;;;;;;;;6187907;28;20030;-83
2021/09/22 12:18:22;;;;;;;6.82;6.18;;;23.50;91.10;;;;;;6223626;28;20492;-81
2021/09/22 12:21:24;;;;;;;7.10;6.40;;;23.70;91.60;;;;;;6227728;28;20125;-81
2021/09/22 12:24:25;;;;;;;;;;;23.70;92.00;;;;;;6221102;28;20037;-83
2021/09/22 12:27:27;;;;;;;7.10;6.40;;;24.00;99.90;;;;;;6227489;28;19913;-84
2021/09/22 12:30:38;;;;;;;7.75;6.95;;;23.90;92.40;;;;;;6212834;28;20104;-81
2021/09/22 12:33:39;;;;;;;6.40;5.80;;;;;;;;;;6212521;28;20022;-83
2021/09/22 12:36:43;;;;;;;6.63;5.93;;;23.70;90.60;;;;;;6246416;28;20088;-82
2021/09/22 12:39:51;;;;;;;6.35;5.55;;;23.90;92.20;;;;;;6228793;28;20029;-83
2021/09/22 12:42:52;;;;;;;5.93;4.57;;;23.70;91.00;;;;;;6211262;28;20034;-82
2021/09/22 12:46:10;;;;;;;6.53;5.93;;;23.40;76.50;;;;;;6196223;28;20121;-82
2021/09/22 12:49:19;;;;;;;6.18;5.63;;;22.90;79.20;;;;;;6205696;28;20442;-82
2021/09/22 12:52:21;;;;;;;6.15;4.82;;;22.60;95.40;;;;;;6212645;28;20565;-82
2021/09/22 12:55:28;;;;;;;5.80;5.07;;;22.80;92.90;;;;;;6194681;28;20025;-83
2021/09/22 12:58:30;;;;;;;7.40;5.45;;;22.50;92.30;;;;;;6228930;28;20045;-82
2021/09/22 13:01:35;;;;;;;6.03;4.65;;;22.50;80.20;;;;;;6196140;28;20039;-83
2021/09/22 13:04:35;;;;;;;4.38;3.97;;;22.50;88.70;;;;;;6227553;28;20379;-83
2021/09/22 13:07:36;;;;;;;6.25;5.05;;;22.50;73.80;;;;;;6212092;28;20037;-83
2021/09/22 13:11:01;;;;;;;4.25;3.80;;;22.50;76.90;;;;;;6214291;28;20492;-82
2021/09/22 13:14:14;;;;;;;4.97;4.47;;;22.50;70.80;;;;;;6206306;28;20033;-81
2021/09/22 13:17:14;;;;;;;9.20;5.10;;;22.40;97.70;;;;;;6246235;28;20041;-81
2021/09/22 13:20:15;;;;;;;4.00;3.60;;;;;;;;;;6245994;28;20049;-85
2021/09/22 13:23:22;;;;;;;4.47;3.20;;;22.20;83.30;;;;;;6211714;28;20109;-84
2021/09/22 13:26:24;;;;;;;5.35;3.60;;;;;;;;;;6207889;28;20033;-82
2021/09/22 13:29:24;;;;;;;3.47;3.10;;;21.80;94.40;;;;;;6223207;28;20029;-82
2021/09/22 13:32:25;;;;;;;4.18;3.60;;;;;;;;;;6214477;28;20021;-82
2021/09/22 13:35:26;;;;;;;3.55;3.25;;;;;;;;;;6227028;28;20087;-82
2021/09/22 13:38:27;;;;;;;3.45;3.15;;;23.10;80.80;;;;;;6226873;28;20033;-84
2021/09/22 13:41:28;;;;;;;3.63;3.22;;;22.00;73.90;;;;;;6210381;28;20064;-82
2021/09/22 13:44:28;;;;;;;6.00;3.70;;;21.90;71.00;;;;;;6226771;28;20060;-82
2021/09/22 13:47:29;;;;;;;3.60;3.30;;;22.00;72.50;;;;;;6209597;28;20379;-81
2021/09/22 13:50:30;;;;;;;3.72;3.30;;;21.80;70.80;;;;;;6227003;28;20030;-83
2021/09/22 13:53:30;;;;;;;4.18;3.22;;;21.60;71.00;;;;;;6210484;28;20418;-83
2021/09/22 13:56:31;;;;;;;3.83;3.42;;;21.50;71.30;;;;;;6226235;28;20132;-83
2021/09/22 13:59:32;;;;;;;6.80;3.28;;;21.50;71.90;;;;;;6226368;28;20021;-81
2021/09/22 14:02:32;;;;;;;4.75;3.35;;;21.50;72.80;;;;;;6209409;28;20036;-82
2021/09/22 14:05:33;;;;;;;4.38;3.30;;;21.60;70.50;;;;;;6244236;28;20357;-84
2021/09/22 14:08:34;;;;;;;4.13;3.70;;;21.70;72.00;;;;;;6209312;28;20037;-82
2021/09/22 14:11:35;;;;;;;4.77;3.20;;;21.70;71.90;;;;;;6192699;28;20642;-81
2021/09/22 14:14:35;;;;;;;4.35;3.30;;;21.70;69.90;;;;;;6209316;28;20056;-82
2021/09/22 14:17:36;;;;;;;3.95;3.53;;;21.70;71.20;;;;;;6225861;28;20030;-82
2021/09/22 14:20:39;;;;;;;3.47;3.17;;;21.50;70.80;;;;;;6192212;28;20052;-81
2021/09/22 14:23:40;;;;;;;4.90;3.30;;;21.30;70.90;;;;;;6193505;28;20398;-80
2021/09/22 14:26:40;;;;;;;3.40;3.08;;;21.30;73.80;;;;;;6202124;28;20068;-80
2021/09/22 14:29:41;;;;;;;5.05;3.90;;;21.10;72.60;;;;;;6218182;28;20039;-80
2021/09/22 14:32:42;;;;;;;9.18;4.80;;;21.10;72.30;;;;;;6210251;28;20031;-80
2021/09/22 14:35:43;;;;;;;5.47;3.60;;;;;;;;;;6244024;28;20025;-80
2021/09/22 14:38:44;;;;;;;3.58;3.28;;;21.10;71.20;;;;;;6209233;28;20176;-82
2021/09/22 14:41:44;;;;;;;4.38;3.47;;;21.00;74.20;;;;;;6193346;28;20022;-81
2021/09/22 14:44:45;;;;;;;10.43;3.85;;;21.10;91.20;;;;;;6243693;28;20040;-80
2021/09/22 14:47:46;;;;;;;11.18;3.33;;;20.90;90.50;;;;;;6193771;28;20351;-80
2021/09/22 14:50:47;;;;;;;3.58;3.20;;;20.90;74.40;;;;;;6192976;28;20032;-80
2021/09/22 14:53:47;;;;;;;12.05;5.15;;;20.80;75.20;;;;;;6225787;28;20029;-80
2021/09/22 14:56:48;;;;;;;4.15;3.63;;;20.90;76.40;;;;;;6225733;28;20129;-80
2021/09/22 14:59:49;;;;;;;3.30;3.00;;;20.90;76.00;;;;;;6225703;28;20040;-80
2021/09/22 15:02:49;;;;;;;4.60;3.38;;;21.10;75.00;;;;;;6225912;28;20463;-80
2021/09/22 15:05:52;;;;;;;3.70;3.35;;;20.90;76.00;;;;;;6225482;28;20379;-80
2021/09/22 15:08:52;;;;;;;6.28;3.50;;;21.00;76.50;;;;;;6225748;28;20411;-80
2021/09/22 15:11:53;;;;;;;3.70;3.30;;;21.10;78.20;;;;;;6225462;28;20029;-80
2021/09/22 15:14:53;;;;;;;4.30;3.90;;;21.10;74.10;;;;;;6208925;28;20045;-80
2021/09/22 15:17:54;;;;;;;4.47;3.40;;;21.00;76.90;;;;;;6225401;28;20108;-80
2021/09/22 15:20:55;;;;;;;4.00;3.65;;;21.00;74.60;;;;;;6225256;28;20057;-80
2021/09/22 15:23:55;;;;;;;4.80;3.55;;;20.90;91.30;;;;;;6225023;28;20779;-80
2021/09/22 15:26:56;;;;;;;4.53;3.90;;;20.80;76.60;;;;;;6224626;28;20029;-80
2021/09/22 15:29:59;;;;;;;7.15;4.03;;;20.70;76.90;;;;;;6192087;28;20024;-80
2021/09/22 15:33:00;;;;;;;3.90;3.50;;;20.60;75.20;;;;;;6217397;28;20018;-81
2021/09/22 15:36:00;;;;;;;3.92;3.63;;;20.60;76.90;;;;;;6242701;28;20029;-80
2021/09/22 15:39:01;;;;;;;4.72;4.22;;;20.60;77.30;;;;;;6225326;28;20375;-80
2021/09/22 15:42:02;;;;;;;4.13;3.63;;;21.20;76.70;;;;;;6225012;28;20100;-80
2021/09/22 15:45:03;;;;;;;3.97;3.58;;;20.40;77.90;;;;;;6225042;28;20526;-80
2021/09/22 15:48:04;;;;;;;4.57;4.17;;;20.30;78.90;;;;;;6224889;28;20020;-80
2021/09/22 15:51:05;;;;;;;5.15;3.90;;;20.20;78.70;;;;;;6208812;28;20268;-80
2021/09/22 15:54:05;;;;;;;3.80;3.40;;;20.10;81.90;;;;;;6225183;28;20539;-80
2021/09/22 15:57:06;;;;;;;6.20;3.60;;;20.00;80.70;;;;;;6224911;28;20049;-80
2021/09/22 16:00:08;;;;;;;5.15;3.65;;;20.00;81.10;;;;;;6211376;28;20033;-80
2021/09/22 16:03:09;;;;;;;5.70;3.83;;;20.00;93.20;;;;;;6223544;28;20033;-79